createdAt,value
2022-11-10T00:00:49.171Z,99.90
2022-11-10T00:03:37.026Z,99.90
2022-11-10T00:06:25.559Z,99.90
2022-11-10T00:09:16.117Z,99.90
2022-11-10T00:12:06.252Z,99.90
2022-11-10T00:15:11.103Z,99.90
2022-11-10T00:17:58.128Z,99.90
2022-11-10T00:20:44.844Z,99.90
2022-11-10T00:23:31.678Z,99.90
2022-11-10T00:26:20.975Z,99.90
2022-11-10T00:29:07.854Z,99.90
2022-11-10T00:31:54.633Z,99.90
2022-11-10T00:34:41.313Z,99.90
2022-11-10T00:37:28.033Z,99.90
2022-11-10T00:40:14.980Z,99.90
2022-11-10T00:43:02.965Z,99.90
2022-11-10T00:45:51.096Z,99.90
2022-11-10T00:48:38.355Z,99.90
2022-11-10T00:51:27.146Z,99.90
2022-11-10T00:54:14.927Z,99.90
2022-11-10T00:57:01.588Z,99.90
2022-11-10T01:00:07.938Z,99.90
2022-11-10T01:02:57.168Z,99.90
2022-11-10T01:05:45.013Z,99.90
2022-11-10T01:08:32.605Z,99.90
2022-11-10T01:11:21.137Z,99.90
2022-11-10T01:14:09.021Z,99.90
2022-11-10T01:16:57.282Z,99.90
2022-11-10T01:19:44.301Z,99.90
2022-11-10T01:22:31.741Z,99.90
2022-11-10T01:25:18.995Z,99.90
2022-11-10T01:28:06.003Z,99.90
2022-11-10T01:30:58.839Z,99.90
2022-11-10T01:33:47.071Z,99.90
2022-11-10T01:36:33.742Z,99.90
2022-11-10T01:39:20.588Z,99.90
2022-11-10T01:42:07.621Z,99.90
2022-11-10T01:45:32.171Z,99.90
2022-11-10T01:48:29.805Z,99.90
2022-11-10T01:51:21.120Z,99.90
2022-11-10T01:54:12.906Z,99.90
2022-11-10T01:57:03.557Z,99.90
2022-11-10T01:59:50.855Z,99.90
2022-11-10T02:02:43.010Z,99.90
2022-11-10T02:05:30.076Z,99.90
2022-11-10T02:08:19.863Z,99.90
2022-11-10T02:11:06.830Z,99.90
2022-11-10T02:13:54.300Z,99.90
2022-11-10T02:16:41.527Z,99.90
2022-11-10T02:19:28.621Z,99.90
2022-11-10T02:22:17.112Z,99.90
2022-11-10T02:25:04.669Z,99.90
2022-11-10T02:27:51.412Z,99.90
2022-11-10T02:30:38.577Z,99.90
2022-11-10T02:33:25.621Z,99.90
2022-11-10T02:36:12.979Z,99.90
2022-11-10T02:39:01.420Z,99.90
2022-11-10T02:41:48.644Z,99.90
2022-11-10T02:44:35.798Z,99.90
2022-11-10T02:47:23.608Z,99.90
2022-11-10T02:50:11.130Z,99.90
2022-11-10T02:52:57.916Z,99.90
2022-11-10T02:55:46.621Z,99.90
2022-11-10T02:58:33.606Z,99.90
2022-11-10T03:01:20.978Z,99.90
2022-11-10T03:04:07.978Z,99.90
2022-11-10T03:06:55.058Z,99.90
2022-11-10T03:09:42.104Z,99.90
2022-11-10T03:12:30.221Z,99.90
2022-11-10T03:15:17.466Z,99.90
2022-11-10T03:18:05.589Z,99.90
2022-11-10T03:20:52.715Z,99.90
2022-11-10T03:23:39.361Z,99.90
2022-11-10T03:26:26.080Z,99.90
2022-11-10T03:29:14.233Z,99.90
2022-11-10T03:32:01.154Z,99.90
2022-11-10T03:34:47.871Z,99.90
2022-11-10T03:37:34.982Z,99.90
2022-11-10T03:40:22.507Z,99.90
2022-11-10T03:43:09.521Z,99.90
2022-11-10T03:45:57.732Z,99.90
2022-11-10T03:48:47.488Z,99.90
2022-11-10T03:51:39.154Z,99.90
2022-11-10T03:54:26.143Z,99.90
2022-11-10T03:57:13.152Z,99.90
2022-11-10T03:59:59.833Z,99.90
2022-11-10T04:02:48.114Z,99.90
2022-11-10T04:05:52.237Z,99.90
2022-11-10T04:08:56.391Z,99.90
2022-11-10T04:12:01.230Z,99.90
2022-11-10T04:15:05.653Z,99.90
2022-11-10T04:17:54.158Z,99.90
2022-11-10T04:20:41.011Z,99.90
2022-11-10T04:23:30.989Z,99.90
2022-11-10T04:26:29.972Z,99.90
2022-11-10T04:29:18.676Z,99.90
2022-11-10T04:32:05.914Z,99.90
2022-11-10T04:34:54.207Z,99.90
2022-11-10T04:37:41.227Z,99.90
2022-11-10T04:40:27.920Z,99.90
2022-11-10T04:43:14.634Z,99.90
2022-11-10T04:46:01.924Z,99.90
2022-11-10T04:48:49.563Z,99.90
2022-11-10T04:51:40.069Z,99.90
2022-11-10T04:54:27.384Z,99.90
2022-11-10T04:57:14.002Z,99.90
2022-11-10T05:00:01.000Z,99.90
2022-11-10T05:02:47.681Z,99.90
2022-11-10T05:05:34.870Z,99.90
2022-11-10T05:08:23.129Z,99.90
2022-11-10T05:11:10.979Z,99.90
2022-11-10T05:13:57.803Z,99.90
2022-11-10T05:16:44.884Z,99.90
2022-11-10T05:19:31.888Z,99.90
2022-11-10T05:22:18.639Z,99.90
2022-11-10T05:25:08.493Z,99.90
2022-11-10T05:27:55.151Z,99.90
2022-11-10T05:30:42.667Z,99.90
2022-11-10T05:33:29.496Z,99.90
2022-11-10T05:36:16.672Z,99.90
2022-11-10T05:39:03.558Z,99.90
2022-11-10T05:41:51.870Z,99.90
2022-11-10T05:44:38.745Z,99.90
2022-11-10T05:47:25.741Z,99.90
2022-11-10T05:50:13.013Z,99.90
2022-11-10T05:52:59.820Z,99.90
2022-11-10T05:55:46.576Z,99.90
2022-11-10T05:58:34.571Z,99.90
2022-11-10T06:01:21.258Z,99.90
2022-11-10T06:04:08.163Z,99.90
2022-11-10T06:06:55.045Z,99.90
2022-11-10T06:09:41.960Z,99.90
2022-11-10T06:12:30.340Z,99.90
2022-11-10T06:15:18.945Z,99.90
2022-11-10T06:18:06.049Z,99.90
2022-11-10T06:20:52.927Z,99.90
2022-11-10T06:23:39.730Z,99.90
2022-11-10T06:26:26.351Z,99.90
2022-11-10T06:29:13.163Z,99.90
2022-11-10T06:32:01.705Z,99.90
2022-11-10T06:34:49.141Z,99.90
2022-11-10T06:37:36.038Z,99.90
2022-11-10T06:40:22.987Z,99.90
2022-11-10T06:43:10.599Z,99.90
2022-11-10T06:46:00.366Z,99.90
2022-11-10T06:48:48.499Z,99.90
2022-11-10T06:51:35.547Z,99.90
2022-11-10T06:54:22.430Z,99.90
2022-11-10T06:57:09.190Z,99.90
2022-11-10T06:59:56.318Z,99.90
2022-11-10T07:02:43.430Z,99.90
2022-11-10T07:05:31.762Z,99.90
2022-11-10T07:08:18.548Z,99.90
2022-11-10T07:11:05.556Z,99.90
2022-11-10T07:13:52.453Z,99.90
2022-11-10T07:16:39.446Z,99.90
2022-11-10T07:19:26.761Z,99.90
2022-11-10T07:22:15.424Z,99.90
2022-11-10T07:25:02.468Z,99.90
2022-11-10T07:27:54.989Z,99.90
2022-11-10T07:30:42.315Z,99.90
2022-11-10T07:33:30.337Z,99.90
2022-11-10T07:36:17.919Z,99.90
2022-11-10T07:39:06.224Z,99.90
2022-11-10T07:41:53.138Z,99.90
2022-11-10T07:44:39.951Z,99.90
2022-11-10T07:47:26.720Z,99.90
2022-11-10T07:50:13.947Z,99.90
2022-11-10T07:53:05.126Z,99.90
2022-11-10T07:55:54.912Z,99.90
2022-11-10T07:58:42.008Z,99.90
2022-11-10T08:01:28.810Z,99.90
2022-11-10T08:04:16.083Z,99.90
2022-11-10T08:07:02.960Z,99.90
2022-11-10T08:09:50.603Z,99.90
2022-11-10T08:12:38.821Z,99.90
2022-11-10T08:15:26.945Z,99.90
2022-11-10T08:18:18.390Z,99.90
2022-11-10T08:21:06.614Z,99.90
2022-11-10T08:23:53.329Z,99.90
2022-11-10T08:26:40.160Z,99.90
2022-11-10T08:29:28.238Z,99.90
2022-11-10T08:32:15.477Z,99.90
2022-11-10T08:35:02.315Z,99.90
2022-11-10T08:37:49.134Z,99.90
2022-11-10T08:40:36.067Z,99.90
2022-11-10T08:43:23.341Z,99.90
2022-11-10T08:46:12.024Z,99.90
2022-11-10T08:48:59.098Z,99.90
2022-11-10T08:51:46.047Z,99.90
2022-11-10T08:54:32.774Z,99.90
2022-11-10T08:57:19.643Z,99.90
2022-11-10T09:00:07.334Z,99.90
2022-11-10T09:02:56.107Z,99.90
2022-11-10T09:05:44.152Z,99.90
2022-11-10T09:08:33.827Z,99.90
2022-11-10T09:11:20.984Z,99.90
2022-11-10T09:14:07.696Z,99.90
2022-11-10T09:16:54.288Z,99.90
2022-11-10T09:19:42.466Z,99.90
2022-11-10T09:22:29.786Z,99.90
2022-11-10T09:25:16.649Z,99.90
2022-11-10T09:28:03.554Z,99.90
2022-11-10T09:30:51.803Z,99.90
2022-11-10T09:33:38.941Z,99.90
2022-11-10T09:36:27.077Z,99.90
2022-11-10T09:39:15.371Z,99.90
2022-11-10T09:42:02.412Z,99.90
2022-11-10T09:44:55.105Z,99.90
2022-11-10T09:48:02.445Z,99.90
2022-11-10T09:50:53.329Z,99.90
2022-11-10T09:53:48.483Z,99.90
2022-11-10T09:56:37.247Z,99.90
2022-11-10T09:59:30.046Z,99.90
2022-11-10T10:02:28.353Z,99.90
2022-11-10T10:05:46.959Z,99.90
2022-11-10T10:08:46.505Z,99.90
2022-11-10T10:11:52.817Z,99.90
2022-11-10T10:14:57.594Z,99.90
2022-11-10T10:17:53.851Z,99.90
2022-11-10T10:20:50.060Z,99.90
2022-11-10T10:24:07.615Z,99.90
2022-11-10T10:26:51.688Z,99.90
2022-11-10T10:29:42.021Z,99.90
2022-11-10T10:32:29.769Z,99.90
2022-11-10T10:35:18.251Z,99.90
2022-11-10T10:38:06.853Z,99.90
2022-11-10T10:40:58.507Z,99.90
2022-11-10T10:43:49.946Z,99.90
2022-11-10T10:46:46.349Z,99.90
2022-11-10T10:49:36.441Z,99.90
2022-11-10T10:52:25.452Z,99.90
2022-11-10T10:55:14.476Z,99.90
2022-11-10T10:58:03.270Z,99.90
2022-11-10T11:00:53.299Z,99.90
2022-11-10T11:03:43.830Z,99.90
2022-11-10T11:06:31.613Z,99.90
2022-11-10T11:09:23.693Z,99.90
2022-11-10T11:12:13.763Z,99.90
2022-11-10T11:15:14.983Z,99.90
2022-11-10T11:18:10.224Z,99.90
2022-11-10T11:21:03.550Z,99.90
2022-11-10T11:24:17.679Z,99.90
2022-11-10T11:27:11.603Z,99.90
2022-11-10T11:30:06.716Z,99.90
2022-11-10T11:33:20.459Z,99.90
2022-11-10T11:36:23.051Z,99.90
2022-11-10T11:39:21.881Z,99.90
2022-11-10T11:42:21.941Z,99.90
2022-11-10T11:45:17.736Z,99.90
2022-11-10T11:48:28.034Z,99.90
2022-11-10T11:51:19.922Z,99.90
2022-11-10T11:54:29.899Z,99.90
2022-11-10T11:57:31.663Z,99.90
2022-11-10T12:00:21.741Z,99.90
2022-11-10T12:03:30.088Z,99.90
2022-11-10T12:06:32.549Z,99.90
2022-11-10T12:09:29.390Z,99.90
2022-11-10T12:12:36.710Z,99.90
2022-11-10T12:15:31.997Z,99.90
2022-11-10T12:18:30.453Z,99.90
2022-11-10T12:21:24.182Z,99.90
2022-11-10T12:24:38.013Z,99.90
2022-11-10T12:27:29.605Z,99.90
2022-11-10T12:30:18.413Z,99.90
2022-11-10T12:33:13.964Z,99.50
2022-11-10T12:36:05.955Z,96.50
2022-11-10T12:39:04.098Z,97.10
2022-11-10T12:42:00.137Z,94.80
2022-11-10T12:45:01.422Z,95.20
2022-11-10T12:47:49.669Z,94.70
2022-11-10T12:50:48.253Z,91.60
2022-11-10T12:53:40.535Z,92.40
2022-11-10T12:56:33.677Z,92.00
2022-11-10T12:59:29.235Z,91.30
2022-11-10T13:02:26.378Z,88.90
2022-11-10T13:05:29.927Z,83.10
2022-11-10T13:08:27.243Z,89.30
2022-11-10T13:11:34.263Z,86.90
2022-11-10T13:14:26.895Z,84.70
2022-11-10T13:17:47.554Z,87.50
2022-11-10T13:20:49.188Z,77.70
2022-11-10T13:24:20.773Z,81.00
2022-11-10T13:27:14.964Z,79.10
2022-11-10T13:30:02.314Z,77.30
2022-11-10T13:32:49.494Z,82.80
2022-11-10T13:35:56.028Z,80.20
2022-11-10T13:38:44.354Z,71.50
2022-11-10T13:41:34.601Z,77.30
2022-11-10T13:44:28.609Z,75.50
2022-11-10T13:47:47.693Z,76.30
2022-11-10T13:50:48.858Z,71.40
2022-11-10T13:53:47.479Z,73.30
2022-11-10T13:56:51.588Z,71.70
2022-11-10T13:59:50.486Z,72.20
2022-11-10T14:02:53.201Z,74.70
2022-11-10T14:06:03.494Z,70.10
2022-11-10T14:08:56.136Z,68.30
2022-11-10T14:11:50.142Z,72.20
2022-11-10T14:14:48.490Z,70.50
2022-11-10T14:17:41.809Z,67.10
2022-11-10T14:20:35.274Z,70.90
2022-11-10T14:23:27.371Z,69.40
2022-11-10T14:26:23.170Z,67.30
2022-11-10T14:29:30.895Z,66.50
2022-11-10T14:32:22.488Z,64.70
2022-11-10T14:35:20.882Z,68.30
2022-11-10T14:38:20.421Z,63.70
2022-11-10T14:41:15.322Z,66.80
2022-11-10T14:44:03.747Z,67.60
2022-11-10T14:46:51.061Z,67.10
2022-11-10T14:49:39.677Z,68.10
2022-11-10T14:52:26.496Z,67.50
2022-11-10T14:55:19.278Z,67.70
2022-11-10T14:58:14.874Z,67.00
2022-11-10T15:01:03.216Z,68.00
2022-11-10T15:03:50.438Z,67.80
2022-11-10T15:06:45.754Z,67.50
2022-11-10T15:09:34.196Z,67.30
2022-11-10T15:12:27.073Z,68.70
2022-11-10T15:15:21.726Z,70.60
2022-11-10T15:18:27.042Z,73.10
2022-11-10T15:21:14.617Z,74.80
2022-11-10T15:24:06.767Z,77.70
2022-11-10T15:26:54.251Z,80.20
2022-11-10T15:29:42.350Z,81.50
2022-11-10T15:32:35.593Z,84.00
2022-11-10T15:35:33.515Z,85.70
2022-11-10T15:38:29.304Z,88.70
2022-11-10T15:41:27.726Z,90.40
2022-11-10T15:44:16.249Z,91.20
2022-11-10T15:47:05.629Z,92.60
2022-11-10T15:49:52.689Z,93.70
2022-11-10T15:52:40.414Z,95.40
2022-11-10T15:55:27.127Z,95.90
2022-11-10T15:58:18.174Z,97.40
2022-11-10T16:01:05.795Z,98.70
2022-11-10T16:03:52.841Z,99.50
2022-11-10T16:06:40.850Z,99.90
2022-11-10T16:09:28.513Z,99.90
2022-11-10T16:12:19.303Z,99.90
2022-11-10T16:15:14.778Z,99.90
2022-11-10T16:18:01.787Z,99.90
2022-11-10T16:20:48.938Z,99.90
2022-11-10T16:23:36.008Z,99.90
2022-11-10T16:26:25.913Z,99.90
2022-11-10T16:29:15.387Z,99.90
2022-11-10T16:32:04.376Z,99.90
2022-11-10T16:34:51.629Z,99.90
2022-11-10T16:37:38.513Z,99.90
2022-11-10T16:40:25.881Z,99.90
2022-11-10T16:43:16.794Z,99.90
2022-11-10T16:46:07.542Z,99.90
2022-11-10T16:48:58.623Z,99.90
2022-11-10T16:51:49.102Z,99.90
2022-11-10T16:54:36.582Z,99.90
2022-11-10T16:57:23.415Z,99.90
2022-11-10T17:00:12.845Z,99.90
2022-11-10T17:03:03.277Z,99.90
2022-11-10T17:05:51.707Z,99.90
2022-11-10T17:08:38.801Z,99.90
2022-11-10T17:11:26.072Z,99.90
2022-11-10T17:14:13.956Z,99.90
2022-11-10T17:17:01.125Z,99.90
2022-11-10T17:19:50.330Z,99.90
2022-11-10T17:22:38.601Z,99.90
2022-11-10T17:25:28.637Z,99.90
2022-11-10T17:28:17.383Z,99.90
2022-11-10T17:31:04.571Z,99.90
2022-11-10T17:33:51.764Z,99.90
2022-11-10T17:36:39.208Z,99.90
2022-11-10T17:39:27.803Z,99.90
2022-11-10T17:42:15.136Z,99.90
2022-11-10T17:45:02.022Z,99.90
2022-11-10T17:47:50.751Z,99.90
2022-11-10T17:50:39.290Z,99.90
2022-11-10T17:53:28.270Z,99.90
2022-11-10T17:56:16.682Z,99.90
2022-11-10T17:59:03.956Z,99.90
2022-11-10T18:01:51.471Z,99.90
2022-11-10T18:04:38.607Z,99.90
2022-11-10T18:07:25.640Z,99.90
2022-11-10T18:10:15.242Z,99.90
2022-11-10T18:13:03.646Z,99.90
2022-11-10T18:15:54.299Z,99.90
2022-11-10T18:18:42.244Z,99.90
2022-11-10T18:21:29.430Z,99.90
2022-11-10T18:24:16.665Z,99.90
2022-11-10T18:27:03.864Z,99.90
2022-11-10T18:29:53.622Z,99.90
2022-11-10T18:32:40.891Z,99.90
2022-11-10T18:35:28.005Z,99.90
2022-11-10T18:38:15.211Z,99.90
2022-11-10T18:41:25.675Z,99.90
2022-11-10T18:44:12.458Z,99.90
2022-11-10T18:47:00.691Z,99.90
2022-11-10T18:49:47.794Z,99.90
2022-11-10T18:52:34.523Z,99.90
2022-11-10T18:55:21.703Z,99.90
2022-11-10T18:58:08.638Z,99.90
2022-11-10T19:01:03.099Z,99.90
2022-11-10T19:03:51.548Z,99.90
2022-11-10T19:06:40.251Z,99.90
2022-11-10T19:09:27.781Z,99.90
2022-11-10T19:12:15.165Z,99.90
2022-11-10T19:15:02.730Z,99.90
2022-11-10T19:17:49.926Z,99.90
2022-11-10T19:20:39.321Z,99.90
2022-11-10T19:23:26.575Z,99.90
2022-11-10T19:26:19.529Z,99.90
2022-11-10T19:29:09.498Z,99.90
2022-11-10T19:31:56.784Z,99.90
2022-11-10T19:34:43.647Z,99.90
2022-11-10T19:37:35.592Z,99.90
2022-11-10T19:40:22.701Z,99.90
2022-11-10T19:43:10.273Z,99.90
2022-11-10T19:45:58.178Z,99.90
2022-11-10T19:48:45.663Z,99.90
2022-11-10T19:51:34.192Z,99.90
2022-11-10T19:54:22.861Z,99.90
2022-11-10T19:57:10.501Z,99.90
2022-11-10T19:59:58.127Z,99.90
2022-11-10T20:02:45.921Z,99.90
2022-11-10T20:05:33.181Z,99.90
2022-11-10T20:08:19.971Z,99.90
2022-11-10T20:11:10.434Z,99.90
2022-11-10T20:13:59.489Z,99.90
2022-11-10T20:16:46.927Z,99.90
2022-11-10T20:19:40.907Z,99.90
2022-11-10T20:22:28.616Z,99.90
2022-11-10T20:25:16.117Z,99.90
2022-11-10T20:28:06.444Z,99.90
2022-11-10T20:30:57.408Z,99.90
2022-11-10T20:33:45.556Z,99.90
2022-11-10T20:36:34.187Z,99.90
2022-11-10T20:39:21.344Z,99.90
2022-11-10T20:42:10.417Z,99.90
2022-11-10T20:44:58.830Z,99.90
2022-11-10T20:47:45.609Z,99.90
2022-11-10T20:50:33.513Z,99.90
2022-11-10T20:53:20.847Z,99.90
2022-11-10T20:56:08.723Z,99.90
2022-11-10T20:58:56.799Z,99.90
2022-11-10T21:01:45.484Z,99.90
2022-11-10T21:04:32.355Z,99.90
2022-11-10T21:07:19.201Z,99.90
2022-11-10T21:10:07.701Z,99.90
2022-11-10T21:12:55.054Z,99.90
2022-11-10T21:15:42.758Z,99.90
2022-11-10T21:18:33.501Z,99.90
2022-11-10T21:21:23.392Z,99.90
2022-11-10T21:24:12.398Z,99.90
2022-11-10T21:26:59.889Z,99.90
2022-11-10T21:29:47.026Z,99.90
2022-11-10T21:32:33.950Z,99.90
2022-11-10T21:35:22.860Z,99.90
2022-11-10T21:38:25.395Z,99.90
2022-11-10T21:41:13.406Z,99.90
2022-11-10T21:44:00.752Z,99.90
2022-11-10T21:46:47.798Z,99.90
2022-11-10T21:49:35.049Z,99.90
2022-11-10T21:52:23.106Z,99.90
2022-11-10T21:55:10.659Z,99.90
2022-11-10T21:57:59.030Z,99.90
2022-11-10T22:00:45.805Z,99.90
2022-11-10T22:03:33.655Z,99.90
2022-11-10T22:06:21.257Z,99.90
2022-11-10T22:09:09.659Z,99.90
2022-11-10T22:12:13.974Z,99.90
2022-11-10T22:15:18.354Z,99.90
2022-11-10T22:18:25.053Z,99.90
2022-11-10T22:21:12.153Z,99.90
2022-11-10T22:24:16.730Z,99.90
2022-11-10T22:27:05.895Z,99.90
2022-11-10T22:29:52.919Z,99.90
2022-11-10T22:32:39.773Z,99.90
2022-11-10T22:35:40.305Z,99.90
2022-11-10T22:38:27.299Z,99.90
2022-11-10T22:41:33.435Z,99.90
2022-11-10T22:44:24.991Z,99.90
2022-11-10T22:47:12.261Z,99.90
2022-11-10T22:49:59.380Z,99.90
2022-11-10T22:52:46.295Z,99.90
2022-11-10T22:55:33.141Z,99.90
2022-11-10T22:58:20.297Z,99.90
2022-11-10T23:01:10.971Z,99.90
2022-11-10T23:03:59.079Z,99.90
2022-11-10T23:06:46.186Z,99.90
2022-11-10T23:09:34.892Z,99.90
2022-11-10T23:12:21.869Z,99.90
2022-11-10T23:15:09.747Z,99.90
2022-11-10T23:18:03.748Z,99.90
2022-11-10T23:21:00.419Z,99.90
2022-11-10T23:23:48.539Z,99.90
2022-11-10T23:26:35.423Z,99.90
2022-11-10T23:29:22.188Z,99.90
2022-11-10T23:32:08.982Z,99.90
2022-11-10T23:34:57.124Z,99.90
2022-11-10T23:37:43.822Z,99.90
2022-11-10T23:40:30.916Z,99.90
2022-11-10T23:43:18.175Z,99.90
2022-11-10T23:46:08.122Z,99.90
2022-11-10T23:48:55.931Z,99.90
2022-11-10T23:51:44.698Z,99.90
2022-11-10T23:54:32.277Z,99.90
2022-11-10T23:57:19.692Z,99.90
